LEAMGCHI

Guest
Details From LEAM - Almeria
To GCHI - Hierro
Flight Number -
Tags decoded
Created
Modified
Stats Distance 954 nm / 1,767 km
Max Altitude 0 ft / 0 m
Waypoints 2
Social Downloads 0
Likes 0
Share VATSIM

Download

Looking for another format? Having issues loading an existing format? Contact us
Advertisement - Login to hide

Notes

Requested: LEAM GCHI

Route

LEAM GCHI

ID Type Via Altitude Latitude Longitude Leg Dist Tot Dist Heading (true) Name
O LEAM APT - 0 ft / 0 m 36.84393˚ -2.37010˚ - 0 nm - Almeria
O GCHI APT - 0 ft / 0 m 27.81485˚ -17.88705˚ 954 nm 954 nm 240° / 231° Hierro

Altitude Profile

Advertisement - Login to hide

Weather


0- 5 10 15 20 25 30 35+ Temperature / ° C

Clouds and Precipitation
Forecast for 2018-05-22 00:00 UTC. Updated 5 hours ago

Ground ~20,000 ft ~40,000 ft Winds

LEAM

Details ICAO LEAM (LEI)
Name Almeria
Region Spain
Timezone Unknown (UTC+0.0)
Stats Elevation 70 ft / 21 m (AMSL)
Location 36.843935° -2.370097°
Runways 1
Magnetic Variation 0.240° W

METAR

LEAM 220430Z 36003KT CAVOK 15/13 Q1013

Decode

TAF

TAF TAF LEAM 220200Z 2203/2303 33004KT CAVOK TX23/2215Z TN14/2206Z BECMG 2207/2209 21012KT

Decode

Departure Runways

ID Width Length Bearing (true) Bearing (mag) Surface Threshold Offset Overrun Length
08 148 ft / 45 m 10,484 ft / 3,196 m 72.94° 73.18° Asphalt 492 ft / 150 m 191 ft / 58 m
26 148 ft / 45 m 10,484 ft / 3,196 m 252.96° 253.20° Asphalt 0 ft / 0 m 150 ft / 46 m

GCHI

Details ICAO GCHI (VDE)
Name Hierro
Region Canary Islands
Timezone Atlantic/Canary (UTC+1.0)
Stats Elevation 337 ft / 103 m (AMSL)
Location 27.814848° -17.887052°
Runways 1
Magnetic Variation 5.577° W

METAR

GCHI 220430Z AUTO 35014KT 9999 FEW023/// 19/14 Q1016

Decode

TAF

TAF GCHI 220200Z 2203/2303 34014KT 9999 SCT030 TX22/2214Z TN18/2205Z PROB30 TEMPO 2213/2216 04004KT PROB30 TEMPO 2215/2222 DZ

Decode

Destination Runways

ID Width Length Bearing (true) Bearing (mag) Surface Threshold Offset Overrun Length
16 98 ft / 30 m 4,110 ft / 1,253 m 152.71° 158.29° Asphalt 0 ft / 0 m 112 ft / 34 m
34 98 ft / 30 m 4,110 ft / 1,253 m 332.71° 338.29° Asphalt 0 ft / 0 m 105 ft / 32 m